createdAt,value
2022-08-17T15:19:08.569Z,30.00
2022-08-17T15:21:39.334Z,29.91
2022-08-17T15:24:11.514Z,29.83
2022-08-17T15:26:42.778Z,29.82
2022-08-17T15:29:13.063Z,29.78
2022-08-17T15:31:43.581Z,29.71
2022-08-17T15:34:14.100Z,29.74
2022-08-17T15:36:49.238Z,29.63
2022-08-17T15:39:19.894Z,29.69
2022-08-17T15:41:58.045Z,29.62
2022-08-17T15:44:32.622Z,29.54
2022-08-17T15:47:05.528Z,29.50
2022-08-17T15:49:35.787Z,29.52
2022-08-17T15:52:23.529Z,29.59
2022-08-17T15:54:58.259Z,29.65
2022-08-17T15:57:29.119Z,29.76
2022-08-17T16:00:00.231Z,29.81
2022-08-17T16:03:45.049Z,29.84
2022-08-17T16:05:26.740Z,29.89
2022-08-17T16:07:58.430Z,29.95
2022-08-17T16:10:34.983Z,29.97
2022-08-17T16:13:17.394Z,29.94
2022-08-17T16:15:57.112Z,29.98
2022-08-17T16:18:33.127Z,29.99
2022-08-17T16:21:25.204Z,30.01
2022-08-17T16:24:13.088Z,30.01
2022-08-17T16:26:44.546Z,29.99
2022-08-17T16:29:14.808Z,29.99
2022-08-17T16:31:45.435Z,29.98
2022-08-17T16:34:18.689Z,29.98
2022-08-17T16:36:54.750Z,29.96
2022-08-17T16:39:29.348Z,29.99
2022-08-17T16:41:59.950Z,29.98
2022-08-17T16:44:33.837Z,29.98
2022-08-17T16:47:03.975Z,30.00
2022-08-17T16:49:37.234Z,30.01
2022-08-17T16:52:11.819Z,29.99
2022-08-17T16:54:48.031Z,30.01
2022-08-17T16:57:19.694Z,30.00
2022-08-17T16:59:53.428Z,29.99
2022-08-17T17:02:38.974Z,30.00
2022-08-17T17:05:33.170Z,30.01
2022-08-17T17:08:15.031Z,30.02
2022-08-17T17:10:49.816Z,30.00
2022-08-17T17:13:23.803Z,30.02
2022-08-17T17:16:15.098Z,30.03
2022-08-17T17:19:11.987Z,30.04
2022-08-17T17:21:55.638Z,30.05
2022-08-17T17:24:34.618Z,30.07
2022-08-17T17:27:19.850Z,30.08
2022-08-17T17:30:12.729Z,30.06
2022-08-17T17:32:47.087Z,30.08
2022-08-17T17:35:42.160Z,30.08
2022-08-17T17:38:23.614Z,30.09
2022-08-17T17:41:11.643Z,30.06
2022-08-17T17:43:43.003Z,30.07
2022-08-17T17:46:29.090Z,30.07
2022-08-17T17:49:01.052Z,30.08
2022-08-17T17:52:08.692Z,30.09
2022-08-17T17:55:00.954Z,30.10
2022-08-17T17:58:07.814Z,30.08
2022-08-17T18:00:56.027Z,30.05
2022-08-17T18:03:58.721Z,30.06
2022-08-17T18:06:34.703Z,30.04
2022-08-17T18:09:11.144Z,30.04
2022-08-17T18:12:13.409Z,30.06
2022-08-17T18:14:47.308Z,30.07
2022-08-17T18:17:17.556Z,30.10
2022-08-17T18:19:49.345Z,30.13
2022-08-17T18:22:23.058Z,30.10
2022-08-17T18:24:58.632Z,30.05
2022-08-17T18:27:41.050Z,30.05
2022-08-17T18:30:17.492Z,30.11
2022-08-17T18:32:48.906Z,30.07
2022-08-17T18:35:21.842Z,30.08
2022-08-17T18:38:00.779Z,30.11
2022-08-17T18:40:38.813Z,30.07
2022-08-17T18:43:14.413Z,30.07
2022-08-17T18:45:51.361Z,30.08
2022-08-17T18:48:34.786Z,30.07
2022-08-17T18:51:35.739Z,30.10
2022-08-17T18:54:23.389Z,30.10
2022-08-17T18:57:01.988Z,30.12
2022-08-17T18:59:45.186Z,30.10
2022-08-17T19:02:28.343Z,30.11
2022-08-17T19:05:12.518Z,30.14
2022-08-17T19:07:48.960Z,30.10
2022-08-17T19:10:22.333Z,30.10
2022-08-17T19:13:13.875Z,30.14
2022-08-17T19:16:25.755Z,30.11
2022-08-17T19:19:18.346Z,30.11
2022-08-17T19:21:52.737Z,30.08
2022-08-17T19:24:26.325Z,30.06
2022-08-17T19:26:59.443Z,30.09
2022-08-17T19:29:39.365Z,30.11
2022-08-17T19:32:11.372Z,30.09
2022-08-17T19:34:44.835Z,30.08
2022-08-17T19:37:40.307Z,30.04
2022-08-17T19:40:48.957Z,30.06
2022-08-17T19:43:36.112Z,30.04
2022-08-17T19:46:21.295Z,30.05
2022-08-17T19:49:12.582Z,30.03
2022-08-17T19:51:54.510Z,29.98
2022-08-17T19:54:27.720Z,29.97
2022-08-17T19:56:58.029Z,29.97
2022-08-17T19:59:48.505Z,29.97
2022-08-17T20:02:35.607Z,29.95
2022-08-17T20:05:16.171Z,29.95
2022-08-17T20:08:08.940Z,29.97
2022-08-17T20:10:54.583Z,29.93
2022-08-17T20:13:33.595Z,29.91
2022-08-17T20:16:06.417Z,29.90
2022-08-17T20:18:52.489Z,29.93
2022-08-17T20:21:31.739Z,29.96
2022-08-17T20:24:26.700Z,29.94
2022-08-17T20:27:19.913Z,29.91
2022-08-17T20:30:11.911Z,29.90
2022-08-17T20:32:54.984Z,29.91
2022-08-17T20:35:29.971Z,29.94
2022-08-17T20:38:13.125Z,29.93
2022-08-17T20:40:59.530Z,29.90
2022-08-17T20:43:35.671Z,29.93
2022-08-17T20:46:18.017Z,29.94
2022-08-17T20:48:52.169Z,29.92
2022-08-17T20:51:42.691Z,29.93
2022-08-17T20:54:59.494Z,29.91
2022-08-17T20:57:35.621Z,29.90
2022-08-17T21:00:35.702Z,29.85
2022-08-17T21:03:50.198Z,29.86
2022-08-17T21:06:21.920Z,29.84
2022-08-17T21:09:38.501Z,29.83
2022-08-17T21:12:08.986Z,29.81
2022-08-17T21:15:00.710Z,29.80
2022-08-17T21:17:48.952Z,29.80
2022-08-17T21:20:36.608Z,29.78
2022-08-17T21:23:31.090Z,29.78
2022-08-17T21:26:06.983Z,29.79
2022-08-17T21:28:59.842Z,29.78
2022-08-17T21:31:34.654Z,29.75
2022-08-17T21:34:23.492Z,29.78
2022-08-17T21:36:53.805Z,29.75
2022-08-17T21:39:35.615Z,29.72
2022-08-17T21:42:09.118Z,29.73
2022-08-17T21:44:44.534Z,29.73
2022-08-17T21:47:25.730Z,29.75
2022-08-17T21:49:57.113Z,29.73
2022-08-17T21:52:30.216Z,29.70
2022-08-17T21:55:04.459Z,29.72
2022-08-17T21:57:37.202Z,29.73
2022-08-17T22:00:18.934Z,29.73
2022-08-17T22:03:02.699Z,29.70
2022-08-17T22:05:40.810Z,29.77
2022-08-17T22:08:27.108Z,29.75
2022-08-17T22:11:04.602Z,29.75
2022-08-17T22:13:40.818Z,29.73
2022-08-17T22:16:28.980Z,29.71
2022-08-17T22:19:01.384Z,29.70
2022-08-17T22:21:31.766Z,29.72
2022-08-17T22:24:08.117Z,29.77
2022-08-17T22:27:03.988Z,29.77
2022-08-17T22:29:47.833Z,29.77
2022-08-17T22:32:41.328Z,29.77
2022-08-17T22:35:30.587Z,29.79
2022-08-17T22:38:21.046Z,29.76
2022-08-17T22:41:24.398Z,29.74
2022-08-17T22:43:56.188Z,29.75
2022-08-17T22:46:28.490Z,29.71
2022-08-17T22:49:01.703Z,29.67
